sensor_id;sensor_type;location;lat;lon;timestamp;temperature;humidity
17425;DHT22;8830;50.978;5.058;2023-04-25T00:00:27;8.90;99.90
17425;DHT22;8830;50.978;5.058;2023-04-25T00:02:54;8.90;99.90
17425;DHT22;8830;50.978;5.058;2023-04-25T00:05:23;8.90;99.90
17425;DHT22;8830;50.978;5.058;2023-04-25T00:07:50;8.90;99.90
17425;DHT22;8830;50.978;5.058;2023-04-25T00:10:19;8.90;99.90
17425;DHT22;8830;50.978;5.058;2023-04-25T00:12:47;8.90;99.90
17425;DHT22;8830;50.978;5.058;2023-04-25T00:15:14;8.90;99.90
17425;DHT22;8830;50.978;5.058;2023-04-25T00:17:41;9.00;99.90
17425;DHT22;8830;50.978;5.058;2023-04-25T00:20:11;9.00;99.90
17425;DHT22;8830;50.978;5.058;2023-04-25T00:22:39;9.00;99.90
17425;DHT22;8830;50.978;5.058;2023-04-25T00:25:06;9.00;99.90
17425;DHT22;8830;50.978;5.058;2023-04-25T00:27:35;9.00;99.90
17425;DHT22;8830;50.978;5.058;2023-04-25T00:30:05;9.00;99.90
17425;DHT22;8830;50.978;5.058;2023-04-25T00:32:34;9.00;99.90
17425;DHT22;8830;50.978;5.058;2023-04-25T00:35:02;9.00;99.90
17425;DHT22;8830;50.978;5.058;2023-04-25T00:37:29;9.00;99.90
17425;DHT22;8830;50.978;5.058;2023-04-25T00:39:58;9.00;99.90
17425;DHT22;8830;50.978;5.058;2023-04-25T00:42:25;9.00;99.90
17425;DHT22;8830;50.978;5.058;2023-04-25T00:44:53;9.00;99.90
17425;DHT22;8830;50.978;5.058;2023-04-25T00:47:21;9.00;99.90
17425;DHT22;8830;50.978;5.058;2023-04-25T00:49:48;9.00;99.90
17425;DHT22;8830;50.978;5.058;2023-04-25T00:52:15;9.00;99.90
17425;DHT22;8830;50.978;5.058;2023-04-25T00:54:43;8.90;99.90
17425;DHT22;8830;50.978;5.058;2023-04-25T00:57:13;9.00;99.90
17425;DHT22;8830;50.978;5.058;2023-04-25T00:59:44;8.90;99.90
17425;DHT22;8830;50.978;5.058;2023-04-25T01:02:13;8.90;99.90
17425;DHT22;8830;50.978;5.058;2023-04-25T01:04:40;9.00;99.90
17425;DHT22;8830;50.978;5.058;2023-04-25T01:07:07;8.90;99.90
17425;DHT22;8830;50.978;5.058;2023-04-25T01:09:35;8.90;99.90
17425;DHT22;8830;50.978;5.058;2023-04-25T01:12:03;8.90;99.90
17425;DHT22;8830;50.978;5.058;2023-04-25T01:14:30;8.80;99.90
17425;DHT22;8830;50.978;5.058;2023-04-25T01:16:58;8.90;99.90
17425;DHT22;8830;50.978;5.058;2023-04-25T01:19:27;8.90;99.90
17425;DHT22;8830;50.978;5.058;2023-04-25T01:21:55;8.90;99.90
17425;DHT22;8830;50.978;5.058;2023-04-25T01:24:23;8.80;99.90
17425;DHT22;8830;50.978;5.058;2023-04-25T01:26:50;8.80;99.90
17425;DHT22;8830;50.978;5.058;2023-04-25T01:29:19;8.80;99.90
17425;DHT22;8830;50.978;5.058;2023-04-25T01:31:47;8.80;99.90
17425;DHT22;8830;50.978;5.058;2023-04-25T01:34:14;8.80;99.90
17425;DHT22;8830;50.978;5.058;2023-04-25T01:36:41;8.90;99.90
17425;DHT22;8830;50.978;5.058;2023-04-25T01:39:09;8.90;99.90
17425;DHT22;8830;50.978;5.058;2023-04-25T01:41:37;8.90;99.90
17425;DHT22;8830;50.978;5.058;2023-04-25T01:44:05;8.80;99.90
17425;DHT22;8830;50.978;5.058;2023-04-25T01:46:34;8.80;99.90
17425;DHT22;8830;50.978;5.058;2023-04-25T01:49:01;8.80;99.90
17425;DHT22;8830;50.978;5.058;2023-04-25T01:51:28;8.80;99.90
17425;DHT22;8830;50.978;5.058;2023-04-25T01:53:56;8.80;99.90
17425;DHT22;8830;50.978;5.058;2023-04-25T01:56:25;8.80;99.90
17425;DHT22;8830;50.978;5.058;2023-04-25T01:58:57;8.80;99.90
17425;DHT22;8830;50.978;5.058;2023-04-25T02:01:24;8.80;99.90
17425;DHT22;8830;50.978;5.058;2023-04-25T02:03:51;8.80;99.90
17425;DHT22;8830;50.978;5.058;2023-04-25T02:06:18;8.80;99.90
17425;DHT22;8830;50.978;5.058;2023-04-25T02:08:45;8.80;99.90
17425;DHT22;8830;50.978;5.058;2023-04-25T02:11:13;8.80;99.90
17425;DHT22;8830;50.978;5.058;2023-04-25T02:13:41;8.70;99.90
17425;DHT22;8830;50.978;5.058;2023-04-25T02:16:08;8.60;99.90
17425;DHT22;8830;50.978;5.058;2023-04-25T02:18:35;8.60;99.90
17425;DHT22;8830;50.978;5.058;2023-04-25T02:21:04;8.60;99.90
17425;DHT22;8830;50.978;5.058;2023-04-25T02:23:31;8.60;99.90
17425;DHT22;8830;50.978;5.058;2023-04-25T02:25:58;8.50;99.90
17425;DHT22;8830;50.978;5.058;2023-04-25T02:28:25;8.50;99.90
17425;DHT22;8830;50.978;5.058;2023-04-25T02:30:54;8.50;99.90
17425;DHT22;8830;50.978;5.058;2023-04-25T02:33:22;8.50;99.90
17425;DHT22;8830;50.978;5.058;2023-04-25T02:35:49;8.50;99.90
17425;DHT22;8830;50.978;5.058;2023-04-25T02:38:16;8.50;99.90
17425;DHT22;8830;50.978;5.058;2023-04-25T02:40:44;8.50;99.90
17425;DHT22;8830;50.978;5.058;2023-04-25T02:43:11;8.50;99.90
17425;DHT22;8830;50.978;5.058;2023-04-25T02:45:38;8.50;99.90
17425;DHT22;8830;50.978;5.058;2023-04-25T02:48:07;8.50;99.90
17425;DHT22;8830;50.978;5.058;2023-04-25T02:50:37;8.50;99.90
17425;DHT22;8830;50.978;5.058;2023-04-25T02:53:04;8.50;99.90
17425;DHT22;8830;50.978;5.058;2023-04-25T02:55:31;8.50;99.90
17425;DHT22;8830;50.978;5.058;2023-04-25T03:00:25;8.50;99.90
17425;DHT22;8830;50.978;5.058;2023-04-25T03:02:54;8.50;99.90
17425;DHT22;8830;50.978;5.058;2023-04-25T03:05:26;8.40;99.90
17425;DHT22;8830;50.978;5.058;2023-04-25T03:07:53;8.40;99.90
17425;DHT22;8830;50.978;5.058;2023-04-25T03:10:20;8.40;99.90
17425;DHT22;8830;50.978;5.058;2023-04-25T03:12:47;8.40;99.90
17425;DHT22;8830;50.978;5.058;2023-04-25T03:15:15;8.40;99.90
17425;DHT22;8830;50.978;5.058;2023-04-25T03:17:43;8.50;99.90
17425;DHT22;8830;50.978;5.058;2023-04-25T03:20:11;8.50;99.90
17425;DHT22;8830;50.978;5.058;2023-04-25T03:22:42;8.50;99.90
17425;DHT22;8830;50.978;5.058;2023-04-25T03:25:11;8.50;99.90
17425;DHT22;8830;50.978;5.058;2023-04-25T03:27:38;8.40;99.90
17425;DHT22;8830;50.978;5.058;2023-04-25T03:30:07;8.40;99.90
17425;DHT22;8830;50.978;5.058;2023-04-25T03:32:34;8.40;99.90
17425;DHT22;8830;50.978;5.058;2023-04-25T03:35:02;8.50;99.90
17425;DHT22;8830;50.978;5.058;2023-04-25T03:37:29;8.40;99.90
17425;DHT22;8830;50.978;5.058;2023-04-25T03:39:58;8.40;99.90
17425;DHT22;8830;50.978;5.058;2023-04-25T03:42:25;8.40;99.90
17425;DHT22;8830;50.978;5.058;2023-04-25T03:44:53;8.40;99.90
17425;DHT22;8830;50.978;5.058;2023-04-25T03:47:20;8.40;99.90
17425;DHT22;8830;50.978;5.058;2023-04-25T03:49:47;8.40;99.90
17425;DHT22;8830;50.978;5.058;2023-04-25T03:52:18;8.40;99.90
17425;DHT22;8830;50.978;5.058;2023-04-25T03:54:49;8.30;99.90
17425;DHT22;8830;50.978;5.058;2023-04-25T03:57:18;8.20;99.90
17425;DHT22;8830;50.978;5.058;2023-04-25T03:59:45;8.20;99.90
17425;DHT22;8830;50.978;5.058;2023-04-25T04:02:16;8.10;99.90
17425;DHT22;8830;50.978;5.058;2023-04-25T04:04:44;8.00;99.90
17425;DHT22;8830;50.978;5.058;2023-04-25T04:07:11;8.00;99.90
17425;DHT22;8830;50.978;5.058;2023-04-25T04:09:38;7.90;99.90
17425;DHT22;8830;50.978;5.058;2023-04-25T04:12:06;7.80;99.90
17425;DHT22;8830;50.978;5.058;2023-04-25T04:14:34;7.80;99.90
17425;DHT22;8830;50.978;5.058;2023-04-25T04:17:01;7.80;99.90
17425;DHT22;8830;50.978;5.058;2023-04-25T04:19:28;7.80;99.90
17425;DHT22;8830;50.978;5.058;2023-04-25T04:21:56;7.80;99.90
17425;DHT22;8830;50.978;5.058;2023-04-25T04:24:23;7.80;99.90
17425;DHT22;8830;50.978;5.058;2023-04-25T04:26:51;7.80;99.90
17425;DHT22;8830;50.978;5.058;2023-04-25T04:29:18;7.80;99.90
17425;DHT22;8830;50.978;5.058;2023-04-25T04:31:51;7.80;99.90
17425;DHT22;8830;50.978;5.058;2023-04-25T04:34:19;7.80;99.90
17425;DHT22;8830;50.978;5.058;2023-04-25T04:36:47;7.90;99.90
17425;DHT22;8830;50.978;5.058;2023-04-25T04:39:14;7.90;99.90
17425;DHT22;8830;50.978;5.058;2023-04-25T04:41:41;8.00;99.90
17425;DHT22;8830;50.978;5.058;2023-04-25T04:44:09;8.00;99.90
17425;DHT22;8830;50.978;5.058;2023-04-25T04:46:36;8.10;99.90
17425;DHT22;8830;50.978;5.058;2023-04-25T04:49:09;8.10;99.90
17425;DHT22;8830;50.978;5.058;2023-04-25T04:51:37;8.00;99.90
17425;DHT22;8830;50.978;5.058;2023-04-25T04:54:04;8.00;99.90
17425;DHT22;8830;50.978;5.058;2023-04-25T04:56:32;8.10;99.90
17425;DHT22;8830;50.978;5.058;2023-04-25T04:58:59;8.20;99.90
17425;DHT22;8830;50.978;5.058;2023-04-25T05:01:27;8.20;99.90
17425;DHT22;8830;50.978;5.058;2023-04-25T05:03:55;8.20;99.90
17425;DHT22;8830;50.978;5.058;2023-04-25T05:06:27;8.10;99.90
17425;DHT22;8830;50.978;5.058;2023-04-25T05:08:55;8.20;99.90
17425;DHT22;8830;50.978;5.058;2023-04-25T05:11:23;8.20;99.90
17425;DHT22;8830;50.978;5.058;2023-04-25T05:13:51;8.20;99.90
17425;DHT22;8830;50.978;5.058;2023-04-25T05:16:19;8.20;99.90
17425;DHT22;8830;50.978;5.058;2023-04-25T05:18:47;8.30;99.90
17425;DHT22;8830;50.978;5.058;2023-04-25T05:21:15;7.80;99.90
17425;DHT22;8830;50.978;5.058;2023-04-25T05:23:44;8.30;99.90
17425;DHT22;8830;50.978;5.058;2023-04-25T05:26:11;8.30;99.90
17425;DHT22;8830;50.978;5.058;2023-04-25T05:28:40;7.20;99.90
17425;DHT22;8830;50.978;5.058;2023-04-25T05:31:07;8.40;99.90
17425;DHT22;8830;50.978;5.058;2023-04-25T05:33:36;8.40;99.90
17425;DHT22;8830;50.978;5.058;2023-04-25T05:36:03;8.40;99.90
17425;DHT22;8830;50.978;5.058;2023-04-25T05:38:31;8.40;99.90
17425;DHT22;8830;50.978;5.058;2023-04-25T05:40:59;8.50;99.90
17425;DHT22;8830;50.978;5.058;2023-04-25T05:43:27;8.50;99.90
17425;DHT22;8830;50.978;5.058;2023-04-25T05:45:54;8.50;99.90
17425;DHT22;8830;50.978;5.058;2023-04-25T05:48:21;8.60;99.90
17425;DHT22;8830;50.978;5.058;2023-04-25T05:50:48;8.60;99.90
17425;DHT22;8830;50.978;5.058;2023-04-25T05:53:17;8.60;99.90
17425;DHT22;8830;50.978;5.058;2023-04-25T05:55:44;8.70;99.90
17425;DHT22;8830;50.978;5.058;2023-04-25T05:58:14;8.70;99.90
17425;DHT22;8830;50.978;5.058;2023-04-25T06:03:10;8.90;99.90
17425;DHT22;8830;50.978;5.058;2023-04-25T06:05:39;8.80;99.90
17425;DHT22;8830;50.978;5.058;2023-04-25T06:08:25;8.90;99.90
17425;DHT22;8830;50.978;5.058;2023-04-25T06:10:54;8.90;99.90
17425;DHT22;8830;50.978;5.058;2023-04-25T06:13:26;9.00;99.90
17425;DHT22;8830;50.978;5.058;2023-04-25T06:15:53;9.00;99.90
17425;DHT22;8830;50.978;5.058;2023-04-25T06:18:20;9.00;99.90
17425;DHT22;8830;50.978;5.058;2023-04-25T06:20:48;9.10;99.90
17425;DHT22;8830;50.978;5.058;2023-04-25T06:23:16;9.10;99.90
17425;DHT22;8830;50.978;5.058;2023-04-25T06:25:43;9.10;99.90
17425;DHT22;8830;50.978;5.058;2023-04-25T06:28:10;9.20;99.90
17425;DHT22;8830;50.978;5.058;2023-04-25T06:30:41;9.30;99.90
17425;DHT22;8830;50.978;5.058;2023-04-25T06:33:08;9.40;99.90
17425;DHT22;8830;50.978;5.058;2023-04-25T06:35:37;9.50;99.90
17425;DHT22;8830;50.978;5.058;2023-04-25T06:38:05;9.60;99.90
17425;DHT22;8830;50.978;5.058;2023-04-25T06:40:32;9.60;99.90
17425;DHT22;8830;50.978;5.058;2023-04-25T06:43:00;9.80;99.90
17425;DHT22;8830;50.978;5.058;2023-04-25T06:45:27;10.00;99.90
17425;DHT22;8830;50.978;5.058;2023-04-25T06:47:56;10.10;99.90
17425;DHT22;8830;50.978;5.058;2023-04-25T06:50:23;10.30;99.90
17425;DHT22;8830;50.978;5.058;2023-04-25T06:52:51;10.30;99.90
17425;DHT22;8830;50.978;5.058;2023-04-25T06:55:20;10.40;99.90
17425;DHT22;8830;50.978;5.058;2023-04-25T06:57:47;10.70;99.90
17425;DHT22;8830;50.978;5.058;2023-04-25T07:00:15;10.80;99.90
17425;DHT22;8830;50.978;5.058;2023-04-25T07:05:11;10.80;99.90
17425;DHT22;8830;50.978;5.058;2023-04-25T07:07:38;10.80;99.90
17425;DHT22;8830;50.978;5.058;2023-04-25T07:10:06;10.80;99.90
17425;DHT22;8830;50.978;5.058;2023-04-25T07:12:33;11.00;99.90
17425;DHT22;8830;50.978;5.058;2023-04-25T07:15:00;11.10;99.90
17425;DHT22;8830;50.978;5.058;2023-04-25T07:17:32;11.20;99.90
17425;DHT22;8830;50.978;5.058;2023-04-25T07:20:00;11.30;99.90
17425;DHT22;8830;50.978;5.058;2023-04-25T07:22:28;11.40;99.90
17425;DHT22;8830;50.978;5.058;2023-04-25T07:24:55;10.50;99.90
17425;DHT22;8830;50.978;5.058;2023-04-25T07:27:23;11.50;99.90
17425;DHT22;8830;50.978;5.058;2023-04-25T07:29:50;11.40;99.90
17425;DHT22;8830;50.978;5.058;2023-04-25T07:32:17;11.20;99.90
17425;DHT22;8830;50.978;5.058;2023-04-25T07:34:46;11.10;99.90
17425;DHT22;8830;50.978;5.058;2023-04-25T07:37:13;11.00;99.90
17425;DHT22;8830;50.978;5.058;2023-04-25T07:39:45;10.90;99.90
17425;DHT22;8830;50.978;5.058;2023-04-25T07:42:13;10.90;99.90
17425;DHT22;8830;50.978;5.058;2023-04-25T07:44:42;11.10;99.90
17425;DHT22;8830;50.978;5.058;2023-04-25T07:47:10;11.30;99.90
17425;DHT22;8830;50.978;5.058;2023-04-25T07:52:05;11.10;99.90
17425;DHT22;8830;50.978;5.058;2023-04-25T07:54:32;11.10;99.90
17425;DHT22;8830;50.978;5.058;2023-04-25T07:57:01;11.20;99.90
17425;DHT22;8830;50.978;5.058;2023-04-25T07:59:28;11.00;99.90
17425;DHT22;8830;50.978;5.058;2023-04-25T08:01:56;11.00;99.90
17425;DHT22;8830;50.978;5.058;2023-04-25T08:04:24;10.90;99.90
17425;DHT22;8830;50.978;5.058;2023-04-25T08:06:51;10.80;99.90
17425;DHT22;8830;50.978;5.058;2023-04-25T08:09:19;10.70;99.90
17425;DHT22;8830;50.978;5.058;2023-04-25T08:11:46;10.70;99.90
17425;DHT22;8830;50.978;5.058;2023-04-25T08:14:15;10.60;99.90
17425;DHT22;8830;50.978;5.058;2023-04-25T08:16:42;10.40;99.90
17425;DHT22;8830;50.978;5.058;2023-04-25T08:19:09;10.10;99.90
17425;DHT22;8830;50.978;5.058;2023-04-25T08:21:39;9.90;99.90
17425;DHT22;8830;50.978;5.058;2023-04-25T08:24:06;9.50;99.90
17425;DHT22;8830;50.978;5.058;2023-04-25T08:26:34;7.60;99.90
17425;DHT22;8830;50.978;5.058;2023-04-25T08:29:03;9.10;99.90
17425;DHT22;8830;50.978;5.058;2023-04-25T08:31:31;9.30;99.90
17425;DHT22;8830;50.978;5.058;2023-04-25T08:33:59;9.50;99.90
17425;DHT22;8830;50.978;5.058;2023-04-25T08:36:26;9.80;99.90
17425;DHT22;8830;50.978;5.058;2023-04-25T08:38:54;10.10;99.90
17425;DHT22;8830;50.978;5.058;2023-04-25T08:41:21;10.50;99.90
17425;DHT22;8830;50.978;5.058;2023-04-25T08:43:49;10.90;99.90
17425;DHT22;8830;50.978;5.058;2023-04-25T08:46:19;11.10;99.90
17425;DHT22;8830;50.978;5.058;2023-04-25T08:48:47;11.40;99.90
17425;DHT22;8830;50.978;5.058;2023-04-25T08:51:20;11.70;99.90
17425;DHT22;8830;50.978;5.058;2023-04-25T08:53:49;11.90;99.90
17425;DHT22;8830;50.978;5.058;2023-04-25T08:56:18;12.00;99.90
17425;DHT22;8830;50.978;5.058;2023-04-25T08:58:49;12.30;99.90
17425;DHT22;8830;50.978;5.058;2023-04-25T09:01:17;12.50;99.90
17425;DHT22;8830;50.978;5.058;2023-04-25T09:03:46;12.70;99.90
17425;DHT22;8830;50.978;5.058;2023-04-25T09:06:13;12.90;99.90
17425;DHT22;8830;50.978;5.058;2023-04-25T09:08:41;12.50;99.90
17425;DHT22;8830;50.978;5.058;2023-04-25T09:11:09;12.10;99.90
17425;DHT22;8830;50.978;5.058;2023-04-25T09:13:36;12.70;99.90
17425;DHT22;8830;50.978;5.058;2023-04-25T09:16:03;13.50;99.90
17425;DHT22;8830;50.978;5.058;2023-04-25T09:18:31;13.70;99.90
17425;DHT22;8830;50.978;5.058;2023-04-25T09:21:06;13.50;99.90
17425;DHT22;8830;50.978;5.058;2023-04-25T09:23:40;13.60;99.90
17425;DHT22;8830;50.978;5.058;2023-04-25T09:26:07;13.90;99.90
17425;DHT22;8830;50.978;5.058;2023-04-25T09:28:35;13.90;99.90
17425;DHT22;8830;50.978;5.058;2023-04-25T09:31:03;13.90;99.90
17425;DHT22;8830;50.978;5.058;2023-04-25T09:33:31;13.90;99.90
17425;DHT22;8830;50.978;5.058;2023-04-25T09:36:05;13.90;99.90
17425;DHT22;8830;50.978;5.058;2023-04-25T09:38:39;13.60;99.90
17425;DHT22;8830;50.978;5.058;2023-04-25T09:41:07;13.50;99.90
17425;DHT22;8830;50.978;5.058;2023-04-25T09:43:34;13.50;99.90
17425;DHT22;8830;50.978;5.058;2023-04-25T09:46:02;13.60;99.90
17425;DHT22;8830;50.978;5.058;2023-04-25T09:48:30;13.60;99.90
17425;DHT22;8830;50.978;5.058;2023-04-25T09:51:09;13.50;99.90
17425;DHT22;8830;50.978;5.058;2023-04-25T09:53:38;13.50;99.90
17425;DHT22;8830;50.978;5.058;2023-04-25T09:56:07;13.60;99.90
17425;DHT22;8830;50.978;5.058;2023-04-25T09:58:35;13.70;99.90
17425;DHT22;8830;50.978;5.058;2023-04-25T10:01:04;13.60;99.90
17425;DHT22;8830;50.978;5.058;2023-04-25T10:03:33;13.40;99.90
17425;DHT22;8830;50.978;5.058;2023-04-25T10:06:02;13.10;99.90
17425;DHT22;8830;50.978;5.058;2023-04-25T10:08:32;13.00;99.90
17425;DHT22;8830;50.978;5.058;2023-04-25T10:11:00;12.70;99.90
17425;DHT22;8830;50.978;5.058;2023-04-25T10:13:29;12.40;99.90
17425;DHT22;8830;50.978;5.058;2023-04-25T10:15:57;12.10;99.90
17425;DHT22;8830;50.978;5.058;2023-04-25T10:18:25;12.20;99.90
17425;DHT22;8830;50.978;5.058;2023-04-25T10:20:54;12.60;99.90
17425;DHT22;8830;50.978;5.058;2023-04-25T10:23:23;12.80;99.90
17425;DHT22;8830;50.978;5.058;2023-04-25T10:25:52;12.80;99.90
17425;DHT22;8830;50.978;5.058;2023-04-25T10:28:20;12.80;99.90
17425;DHT22;8830;50.978;5.058;2023-04-25T10:30:58;12.90;99.90
17425;DHT22;8830;50.978;5.058;2023-04-25T10:33:35;13.10;99.90
17425;DHT22;8830;50.978;5.058;2023-04-25T10:36:10;13.20;99.90
17425;DHT22;8830;50.978;5.058;2023-04-25T10:38:37;13.30;99.90
17425;DHT22;8830;50.978;5.058;2023-04-25T10:41:07;13.50;99.90
17425;DHT22;8830;50.978;5.058;2023-04-25T10:43:37;13.80;99.90
17425;DHT22;8830;50.978;5.058;2023-04-25T10:46:16;13.90;99.90
17425;DHT22;8830;50.978;5.058;2023-04-25T10:48:48;13.90;99.90
17425;DHT22;8830;50.978;5.058;2023-04-25T10:51:21;14.10;99.90
17425;DHT22;8830;50.978;5.058;2023-04-25T10:54:00;13.90;99.90
17425;DHT22;8830;50.978;5.058;2023-04-25T10:56:32;13.60;99.90
17425;DHT22;8830;50.978;5.058;2023-04-25T10:59:06;13.40;99.90
17425;DHT22;8830;50.978;5.058;2023-04-25T11:01:38;13.10;99.90
17425;DHT22;8830;50.978;5.058;2023-04-25T11:04:06;13.00;99.90
17425;DHT22;8830;50.978;5.058;2023-04-25T11:06:55;12.60;99.90
17425;DHT22;8830;50.978;5.058;2023-04-25T11:09:25;12.50;99.90
17425;DHT22;8830;50.978;5.058;2023-04-25T11:11:55;12.50;99.90
17425;DHT22;8830;50.978;5.058;2023-04-25T11:14:23;12.50;99.90
17425;DHT22;8830;50.978;5.058;2023-04-25T11:16:53;12.30;99.90
17425;DHT22;8830;50.978;5.058;2023-04-25T11:19:21;12.50;99.90
17425;DHT22;8830;50.978;5.058;2023-04-25T11:21:48;12.90;99.90
17425;DHT22;8830;50.978;5.058;2023-04-25T11:24:17;13.10;99.90
17425;DHT22;8830;50.978;5.058;2023-04-25T11:26:47;13.10;99.90
17425;DHT22;8830;50.978;5.058;2023-04-25T11:29:15;13.20;99.90
17425;DHT22;8830;50.978;5.058;2023-04-25T11:31:47;13.00;99.90
17425;DHT22;8830;50.978;5.058;2023-04-25T11:34:17;13.50;99.90
17425;DHT22;8830;50.978;5.058;2023-04-25T11:36:45;13.50;99.90
17425;DHT22;8830;50.978;5.058;2023-04-25T11:39:12;13.30;99.90
17425;DHT22;8830;50.978;5.058;2023-04-25T11:41:41;13.90;99.90
17425;DHT22;8830;50.978;5.058;2023-04-25T11:44:08;13.70;99.90
17425;DHT22;8830;50.978;5.058;2023-04-25T11:46:37;13.60;99.90
17425;DHT22;8830;50.978;5.058;2023-04-25T11:49:04;13.40;99.90
17425;DHT22;8830;50.978;5.058;2023-04-25T11:51:38;13.30;99.90
17425;DHT22;8830;50.978;5.058;2023-04-25T11:54:06;13.10;99.90
17425;DHT22;8830;50.978;5.058;2023-04-25T11:56:33;12.50;99.90
17425;DHT22;8830;50.978;5.058;2023-04-25T11:59:02;12.30;99.90
17425;DHT22;8830;50.978;5.058;2023-04-25T12:01:31;12.00;99.90
17425;DHT22;8830;50.978;5.058;2023-04-25T12:04:11;11.80;99.90
17425;DHT22;8830;50.978;5.058;2023-04-25T12:06:38;11.60;99.90
17425;DHT22;8830;50.978;5.058;2023-04-25T12:09:08;11.90;99.90
17425;DHT22;8830;50.978;5.058;2023-04-25T12:11:41;12.20;99.90
17425;DHT22;8830;50.978;5.058;2023-04-25T12:14:09;12.40;99.90
17425;DHT22;8830;50.978;5.058;2023-04-25T12:16:43;12.40;99.90
17425;DHT22;8830;50.978;5.058;2023-04-25T12:19:15;12.40;99.90
17425;DHT22;8830;50.978;5.058;2023-04-25T12:21:43;12.30;99.90
17425;DHT22;8830;50.978;5.058;2023-04-25T12:24:12;12.60;99.90
17425;DHT22;8830;50.978;5.058;2023-04-25T12:26:50;13.30;99.90
17425;DHT22;8830;50.978;5.058;2023-04-25T12:29:24;13.40;99.90
17425;DHT22;8830;50.978;5.058;2023-04-25T12:31:54;13.70;99.90
17425;DHT22;8830;50.978;5.058;2023-04-25T12:34:23;14.10;99.90
17425;DHT22;8830;50.978;5.058;2023-04-25T12:36:51;14.00;99.90
17425;DHT22;8830;50.978;5.058;2023-04-25T12:39:20;13.30;99.90
17425;DHT22;8830;50.978;5.058;2023-04-25T12:41:48;13.30;99.90
17425;DHT22;8830;50.978;5.058;2023-04-25T12:44:15;13.10;99.90
17425;DHT22;8830;50.978;5.058;2023-04-25T12:46:43;12.90;99.90
17425;DHT22;8830;50.978;5.058;2023-04-25T12:49:10;12.80;99.90
17425;DHT22;8830;50.978;5.058;2023-04-25T12:51:40;12.70;99.90
17425;DHT22;8830;50.978;5.058;2023-04-25T12:54:07;12.80;99.90
17425;DHT22;8830;50.978;5.058;2023-04-25T12:56:35;12.80;99.90
17425;DHT22;8830;50.978;5.058;2023-04-25T12:59:03;13.00;99.90
17425;DHT22;8830;50.978;5.058;2023-04-25T13:01:30;13.20;99.90
17425;DHT22;8830;50.978;5.058;2023-04-25T13:03:57;13.30;99.90
17425;DHT22;8830;50.978;5.058;2023-04-25T13:06:24;13.50;99.90
17425;DHT22;8830;50.978;5.058;2023-04-25T13:08:53;13.60;99.90
17425;DHT22;8830;50.978;5.058;2023-04-25T13:13:47;13.40;99.90
17425;DHT22;8830;50.978;5.058;2023-04-25T13:16:14;13.40;99.90
17425;DHT22;8830;50.978;5.058;2023-04-25T13:18:41;13.40;99.90
17425;DHT22;8830;50.978;5.058;2023-04-25T13:21:10;13.20;99.90
17425;DHT22;8830;50.978;5.058;2023-04-25T13:23:37;13.20;99.90
17425;DHT22;8830;50.978;5.058;2023-04-25T13:26:06;13.20;99.90
17425;DHT22;8830;50.978;5.058;2023-04-25T13:28:33;13.00;99.90
17425;DHT22;8830;50.978;5.058;2023-04-25T13:31:00;13.00;99.90
17425;DHT22;8830;50.978;5.058;2023-04-25T13:33:28;13.10;99.90
17425;DHT22;8830;50.978;5.058;2023-04-25T13:35:55;13.10;99.90
17425;DHT22;8830;50.978;5.058;2023-04-25T13:38:23;13.10;99.90
17425;DHT22;8830;50.978;5.058;2023-04-25T13:40:51;13.40;99.90
17425;DHT22;8830;50.978;5.058;2023-04-25T13:43:21;13.50;99.90
17425;DHT22;8830;50.978;5.058;2023-04-25T13:45:48;13.70;99.90
17425;DHT22;8830;50.978;5.058;2023-04-25T13:48:16;13.10;99.90
17425;DHT22;8830;50.978;5.058;2023-04-25T13:50:43;13.50;99.90
17425;DHT22;8830;50.978;5.058;2023-04-25T13:53:11;13.30;99.90
17425;DHT22;8830;50.978;5.058;2023-04-25T13:58:06;13.30;99.90
17425;DHT22;8830;50.978;5.058;2023-04-25T14:00:38;13.60;99.90
17425;DHT22;8830;50.978;5.058;2023-04-25T14:03:06;14.10;99.90
17425;DHT22;8830;50.978;5.058;2023-04-25T14:05:34;14.40;99.90
17425;DHT22;8830;50.978;5.058;2023-04-25T14:08:05;14.70;99.90
17425;DHT22;8830;50.978;5.058;2023-04-25T14:10:33;14.80;99.90
17425;DHT22;8830;50.978;5.058;2023-04-25T14:13:01;14.70;99.90
17425;DHT22;8830;50.978;5.058;2023-04-25T14:15:29;14.30;99.90
17425;DHT22;8830;50.978;5.058;2023-04-25T14:17:58;14.20;99.90
17425;DHT22;8830;50.978;5.058;2023-04-25T14:20:26;14.10;99.90
17425;DHT22;8830;50.978;5.058;2023-04-25T14:22:54;14.00;99.90
17425;DHT22;8830;50.978;5.058;2023-04-25T14:25:22;14.00;99.90
17425;DHT22;8830;50.978;5.058;2023-04-25T14:27:49;14.10;99.90
17425;DHT22;8830;50.978;5.058;2023-04-25T14:30:16;14.10;99.90
17425;DHT22;8830;50.978;5.058;2023-04-25T14:32:44;14.00;99.90
17425;DHT22;8830;50.978;5.058;2023-04-25T14:35:13;13.90;99.90
17425;DHT22;8830;50.978;5.058;2023-04-25T14:37:40;13.80;99.90
17425;DHT22;8830;50.978;5.058;2023-04-25T14:40:10;13.90;99.90
17425;DHT22;8830;50.978;5.058;2023-04-25T14:42:38;14.00;99.90
17425;DHT22;8830;50.978;5.058;2023-04-25T14:45:07;13.70;99.90
17425;DHT22;8830;50.978;5.058;2023-04-25T14:47:35;13.90;99.90
17425;DHT22;8830;50.978;5.058;2023-04-25T14:50:03;14.10;99.90
17425;DHT22;8830;50.978;5.058;2023-04-25T14:52:33;14.10;99.90
17425;DHT22;8830;50.978;5.058;2023-04-25T14:55:00;14.00;99.90
17425;DHT22;8830;50.978;5.058;2023-04-25T14:57:30;14.10;99.90
17425;DHT22;8830;50.978;5.058;2023-04-25T14:59:58;14.10;99.90
17425;DHT22;8830;50.978;5.058;2023-04-25T15:02:25;13.70;99.90
17425;DHT22;8830;50.978;5.058;2023-04-25T15:04:53;13.50;99.90
17425;DHT22;8830;50.978;5.058;2023-04-25T15:07:20;13.50;99.90
17425;DHT22;8830;50.978;5.058;2023-04-25T15:09:49;13.80;99.90
17425;DHT22;8830;50.978;5.058;2023-04-25T15:12:16;13.90;99.90
17425;DHT22;8830;50.978;5.058;2023-04-25T15:14:43;13.70;99.90
17425;DHT22;8830;50.978;5.058;2023-04-25T15:17:10;13.90;99.90
17425;DHT22;8830;50.978;5.058;2023-04-25T15:19:39;14.00;99.90
17425;DHT22;8830;50.978;5.058;2023-04-25T15:22:07;14.10;99.90
17425;DHT22;8830;50.978;5.058;2023-04-25T15:24:35;14.10;99.90
17425;DHT22;8830;50.978;5.058;2023-04-25T15:27:03;14.00;99.90
17425;DHT22;8830;50.978;5.058;2023-04-25T15:29:31;13.80;99.90
17425;DHT22;8830;50.978;5.058;2023-04-25T15:31:58;13.70;99.90
17425;DHT22;8830;50.978;5.058;2023-04-25T15:34:26;13.80;99.90
17425;DHT22;8830;50.978;5.058;2023-04-25T15:36:53;14.00;99.90
17425;DHT22;8830;50.978;5.058;2023-04-25T15:39:20;14.10;99.90
17425;DHT22;8830;50.978;5.058;2023-04-25T15:41:47;13.30;99.90
17425;DHT22;8830;50.978;5.058;2023-04-25T15:44:18;12.80;99.90
17425;DHT22;8830;50.978;5.058;2023-04-25T15:46:45;12.50;99.90
17425;DHT22;8830;50.978;5.058;2023-04-25T15:49:12;12.30;99.90
17425;DHT22;8830;50.978;5.058;2023-04-25T15:51:39;12.30;99.90
17425;DHT22;8830;50.978;5.058;2023-04-25T15:54:06;12.30;99.90
17425;DHT22;8830;50.978;5.058;2023-04-25T15:56:33;12.40;99.90
17425;DHT22;8830;50.978;5.058;2023-04-25T15:59:00;12.30;99.90
17425;DHT22;8830;50.978;5.058;2023-04-25T16:01:29;12.50;99.90
17425;DHT22;8830;50.978;5.058;2023-04-25T16:03:57;12.60;99.90
17425;DHT22;8830;50.978;5.058;2023-04-25T16:06:25;12.60;99.90
17425;DHT22;8830;50.978;5.058;2023-04-25T16:08:53;12.40;99.90
17425;DHT22;8830;50.978;5.058;2023-04-25T16:11:20;12.50;99.90
17425;DHT22;8830;50.978;5.058;2023-04-25T16:13:50;12.50;99.90